sensor_id;sensor_type;location;lat;lon;timestamp;P1;durP1;ratioP1;P2;durP2;ratioP2
11283;SDS011;5698;47.332;11.180;2023-07-24T00:02:24;8.67;;;7.57;;
11283;SDS011;5698;47.332;11.180;2023-07-24T00:04:53;9.30;;;8.17;;
11283;SDS011;5698;47.332;11.180;2023-07-24T00:07:20;9.80;;;7.63;;
11283;SDS011;5698;47.332;11.180;2023-07-24T00:09:48;9.43;;;8.13;;
11283;SDS011;5698;47.332;11.180;2023-07-24T00:12:15;9.53;;;8.43;;
11283;SDS011;5698;47.332;11.180;2023-07-24T00:14:42;9.17;;;7.30;;
11283;SDS011;5698;47.332;11.180;2023-07-24T00:17:09;10.53;;;7.40;;
11283;SDS011;5698;47.332;11.180;2023-07-24T00:19:36;7.93;;;7.13;;
11283;SDS011;5698;47.332;11.180;2023-07-24T00:22:04;9.97;;;7.37;;
11283;SDS011;5698;47.332;11.180;2023-07-24T00:24:32;8.37;;;7.07;;
11283;SDS011;5698;47.332;11.180;2023-07-24T00:26:59;12.73;;;7.77;;
11283;SDS011;5698;47.332;11.180;2023-07-24T00:29:26;8.40;;;6.90;;
11283;SDS011;5698;47.332;11.180;2023-07-24T00:31:53;9.30;;;7.20;;
11283;SDS011;5698;47.332;11.180;2023-07-24T00:34:20;8.93;;;7.87;;
11283;SDS011;5698;47.332;11.180;2023-07-24T00:36:47;9.20;;;8.07;;
11283;SDS011;5698;47.332;11.180;2023-07-24T00:39:16;9.90;;;8.03;;
11283;SDS011;5698;47.332;11.180;2023-07-24T00:41:43;8.57;;;7.67;;
11283;SDS011;5698;47.332;11.180;2023-07-24T00:44:10;9.13;;;7.40;;
11283;SDS011;5698;47.332;11.180;2023-07-24T00:46:37;9.20;;;7.63;;
11283;SDS011;5698;47.332;11.180;2023-07-24T00:49:04;10.53;;;7.47;;
11283;SDS011;5698;47.332;11.180;2023-07-24T00:51:32;8.73;;;7.83;;
11283;SDS011;5698;47.332;11.180;2023-07-24T00:54:00;11.20;;;8.10;;
11283;SDS011;5698;47.332;11.180;2023-07-24T00:56:30;10.00;;;7.50;;
11283;SDS011;5698;47.332;11.180;2023-07-24T00:58:58;11.70;;;7.90;;
11283;SDS011;5698;47.332;11.180;2023-07-24T01:01:26;11.53;;;8.03;;
11283;SDS011;5698;47.332;11.180;2023-07-24T01:03:54;8.67;;;7.80;;
11283;SDS011;5698;47.332;11.180;2023-07-24T01:06:24;9.37;;;7.33;;
11283;SDS011;5698;47.332;11.180;2023-07-24T01:08:51;9.57;;;7.47;;
11283;SDS011;5698;47.332;11.180;2023-07-24T01:11:19;10.87;;;8.40;;
11283;SDS011;5698;47.332;11.180;2023-07-24T01:13:53;8.80;;;7.47;;
11283;SDS011;5698;47.332;11.180;2023-07-24T01:16:24;8.77;;;7.50;;
11283;SDS011;5698;47.332;11.180;2023-07-24T01:18:55;9.80;;;7.57;;
11283;SDS011;5698;47.332;11.180;2023-07-24T01:21:32;9.87;;;7.80;;
11283;SDS011;5698;47.332;11.180;2023-07-24T01:24:08;9.70;;;8.23;;
11283;SDS011;5698;47.332;11.180;2023-07-24T01:26:49;10.57;;;8.17;;
11283;SDS011;5698;47.332;11.180;2023-07-24T01:29:17;9.80;;;7.67;;
11283;SDS011;5698;47.332;11.180;2023-07-24T01:31:44;9.20;;;8.20;;
11283;SDS011;5698;47.332;11.180;2023-07-24T01:34:11;8.97;;;7.53;;
11283;SDS011;5698;47.332;11.180;2023-07-24T01:36:38;9.70;;;7.73;;
11283;SDS011;5698;47.332;11.180;2023-07-24T01:39:05;10.00;;;8.10;;
11283;SDS011;5698;47.332;11.180;2023-07-24T01:41:32;9.73;;;8.73;;
11283;SDS011;5698;47.332;11.180;2023-07-24T01:44:01;10.83;;;8.43;;
11283;SDS011;5698;47.332;11.180;2023-07-24T01:46:28;9.87;;;8.13;;
11283;SDS011;5698;47.332;11.180;2023-07-24T01:48:55;10.87;;;8.63;;
11283;SDS011;5698;47.332;11.180;2023-07-24T01:51:22;9.73;;;8.73;;
11283;SDS011;5698;47.332;11.180;2023-07-24T01:53:49;9.43;;;8.43;;
11283;SDS011;5698;47.332;11.180;2023-07-24T01:56:16;9.93;;;8.33;;
11283;SDS011;5698;47.332;11.180;2023-07-24T01:58:43;9.00;;;8.10;;
11283;SDS011;5698;47.332;11.180;2023-07-24T02:01:11;9.60;;;8.50;;
11283;SDS011;5698;47.332;11.180;2023-07-24T02:03:39;9.83;;;8.70;;
11283;SDS011;5698;47.332;11.180;2023-07-24T02:06:06;9.43;;;8.17;;
11283;SDS011;5698;47.332;11.180;2023-07-24T02:08:33;9.97;;;8.50;;
11283;SDS011;5698;47.332;11.180;2023-07-24T02:11:00;9.50;;;8.03;;
11283;SDS011;5698;47.332;11.180;2023-07-24T02:13:27;10.13;;;8.37;;
11283;SDS011;5698;47.332;11.180;2023-07-24T02:15:54;11.57;;;8.50;;
11283;SDS011;5698;47.332;11.180;2023-07-24T02:18:22;11.33;;;9.00;;
11283;SDS011;5698;47.332;11.180;2023-07-24T02:20:49;10.43;;;7.83;;
11283;SDS011;5698;47.332;11.180;2023-07-24T02:23:17;9.97;;;8.53;;
11283;SDS011;5698;47.332;11.180;2023-07-24T02:25:44;12.87;;;9.57;;
11283;SDS011;5698;47.332;11.180;2023-07-24T02:28:11;14.73;;;9.13;;
11283;SDS011;5698;47.332;11.180;2023-07-24T02:30:38;11.23;;;9.10;;
11283;SDS011;5698;47.332;11.180;2023-07-24T02:33:05;10.57;;;8.73;;
11283;SDS011;5698;47.332;11.180;2023-07-24T02:35:39;9.43;;;8.43;;
11283;SDS011;5698;47.332;11.180;2023-07-24T02:38:06;10.43;;;9.07;;
11283;SDS011;5698;47.332;11.180;2023-07-24T02:40:33;10.93;;;8.87;;
11283;SDS011;5698;47.332;11.180;2023-07-24T02:43:01;10.63;;;9.03;;
11283;SDS011;5698;47.332;11.180;2023-07-24T02:45:28;11.70;;;9.50;;
11283;SDS011;5698;47.332;11.180;2023-07-24T02:47:55;10.53;;;8.80;;
11283;SDS011;5698;47.332;11.180;2023-07-24T02:50:22;10.67;;;8.77;;
11283;SDS011;5698;47.332;11.180;2023-07-24T02:52:51;12.20;;;9.50;;
11283;SDS011;5698;47.332;11.180;2023-07-24T02:55:19;10.00;;;8.87;;
11283;SDS011;5698;47.332;11.180;2023-07-24T02:57:46;10.90;;;9.57;;
11283;SDS011;5698;47.332;11.180;2023-07-24T03:00:13;12.17;;;9.37;;
11283;SDS011;5698;47.332;11.180;2023-07-24T03:02:40;11.00;;;8.80;;
11283;SDS011;5698;47.332;11.180;2023-07-24T03:05:07;10.70;;;9.63;;
11283;SDS011;5698;47.332;11.180;2023-07-24T03:07:35;10.67;;;9.07;;
11283;SDS011;5698;47.332;11.180;2023-07-24T03:10:03;10.53;;;9.43;;
11283;SDS011;5698;47.332;11.180;2023-07-24T03:12:31;10.40;;;9.10;;
11283;SDS011;5698;47.332;11.180;2023-07-24T03:14:58;12.73;;;10.03;;
11283;SDS011;5698;47.332;11.180;2023-07-24T03:17:25;10.47;;;8.90;;
11283;SDS011;5698;47.332;11.180;2023-07-24T03:19:51;9.93;;;8.80;;
11283;SDS011;5698;47.332;11.180;2023-07-24T03:22:20;11.90;;;9.83;;
11283;SDS011;5698;47.332;11.180;2023-07-24T03:24:47;11.40;;;9.57;;
11283;SDS011;5698;47.332;11.180;2023-07-24T03:27:15;9.97;;;8.90;;
11283;SDS011;5698;47.332;11.180;2023-07-24T03:29:42;10.63;;;9.53;;
11283;SDS011;5698;47.332;11.180;2023-07-24T03:32:09;12.23;;;9.83;;
11283;SDS011;5698;47.332;11.180;2023-07-24T03:34:36;11.33;;;9.23;;
11283;SDS011;5698;47.332;11.180;2023-07-24T03:37:04;11.93;;;9.00;;
11283;SDS011;5698;47.332;11.180;2023-07-24T03:39:31;9.83;;;8.80;;
11283;SDS011;5698;47.332;11.180;2023-07-24T03:41:58;11.53;;;10.33;;
11283;SDS011;5698;47.332;11.180;2023-07-24T03:44:26;12.73;;;10.30;;
11283;SDS011;5698;47.332;11.180;2023-07-24T03:46:53;9.77;;;8.67;;
11283;SDS011;5698;47.332;11.180;2023-07-24T03:49:20;13.07;;;9.67;;
11283;SDS011;5698;47.332;11.180;2023-07-24T03:51:47;14.17;;;9.57;;
11283;SDS011;5698;47.332;11.180;2023-07-24T03:54:14;13.63;;;10.03;;
11283;SDS011;5698;47.332;11.180;2023-07-24T03:56:41;10.97;;;9.83;;
11283;SDS011;5698;47.332;11.180;2023-07-24T03:59:08;10.77;;;9.07;;
11283;SDS011;5698;47.332;11.180;2023-07-24T04:01:36;12.50;;;10.30;;
11283;SDS011;5698;47.332;11.180;2023-07-24T04:04:04;13.60;;;10.33;;
11283;SDS011;5698;47.332;11.180;2023-07-24T04:06:30;12.13;;;10.40;;
11283;SDS011;5698;47.332;11.180;2023-07-24T04:08:57;11.20;;;9.90;;
11283;SDS011;5698;47.332;11.180;2023-07-24T04:11:25;11.70;;;9.73;;
11283;SDS011;5698;47.332;11.180;2023-07-24T04:13:51;13.13;;;10.33;;
11283;SDS011;5698;47.332;11.180;2023-07-24T04:16:18;10.70;;;9.27;;
11283;SDS011;5698;47.332;11.180;2023-07-24T04:18:47;14.13;;;10.07;;
11283;SDS011;5698;47.332;11.180;2023-07-24T04:21:14;10.43;;;9.33;;
11283;SDS011;5698;47.332;11.180;2023-07-24T04:23:41;11.10;;;9.90;;
11283;SDS011;5698;47.332;11.180;2023-07-24T04:26:08;12.73;;;10.37;;
11283;SDS011;5698;47.332;11.180;2023-07-24T04:28:34;12.03;;;10.00;;
11283;SDS011;5698;47.332;11.180;2023-07-24T04:31:01;10.97;;;9.33;;
11283;SDS011;5698;47.332;11.180;2023-07-24T04:33:28;11.43;;;10.23;;
11283;SDS011;5698;47.332;11.180;2023-07-24T04:35:57;11.80;;;10.30;;
11283;SDS011;5698;47.332;11.180;2023-07-24T04:38:24;11.50;;;10.20;;
11283;SDS011;5698;47.332;11.180;2023-07-24T04:40:51;10.90;;;9.53;;
11283;SDS011;5698;47.332;11.180;2023-07-24T04:43:18;12.40;;;10.10;;
11283;SDS011;5698;47.332;11.180;2023-07-24T04:45:44;11.33;;;9.93;;
11283;SDS011;5698;47.332;11.180;2023-07-24T04:48:11;13.80;;;11.23;;
11283;SDS011;5698;47.332;11.180;2023-07-24T04:50:38;14.67;;;10.50;;
11283;SDS011;5698;47.332;11.180;2023-07-24T04:53:07;10.63;;;9.50;;
11283;SDS011;5698;47.332;11.180;2023-07-24T04:55:34;11.17;;;9.63;;
11283;SDS011;5698;47.332;11.180;2023-07-24T04:58:01;10.30;;;9.00;;
11283;SDS011;5698;47.332;11.180;2023-07-24T05:00:28;11.00;;;9.80;;
11283;SDS011;5698;47.332;11.180;2023-07-24T05:02:55;15.57;;;10.77;;
11283;SDS011;5698;47.332;11.180;2023-07-24T05:05:21;12.53;;;10.90;;
11283;SDS011;5698;47.332;11.180;2023-07-24T05:07:48;14.57;;;10.73;;
11283;SDS011;5698;47.332;11.180;2023-07-24T05:10:17;10.60;;;9.47;;
11283;SDS011;5698;47.332;11.180;2023-07-24T05:12:44;11.67;;;9.73;;
11283;SDS011;5698;47.332;11.180;2023-07-24T05:15:11;12.83;;;10.23;;
11283;SDS011;5698;47.332;11.180;2023-07-24T05:17:38;12.33;;;10.20;;
11283;SDS011;5698;47.332;11.180;2023-07-24T05:20:05;11.90;;;9.53;;
11283;SDS011;5698;47.332;11.180;2023-07-24T05:22:33;12.27;;;10.20;;
11283;SDS011;5698;47.332;11.180;2023-07-24T05:25:00;11.97;;;10.23;;
11283;SDS011;5698;47.332;11.180;2023-07-24T05:27:28;11.77;;;9.70;;
11283;SDS011;5698;47.332;11.180;2023-07-24T05:29:55;15.87;;;10.43;;
11283;SDS011;5698;47.332;11.180;2023-07-24T05:32:22;13.47;;;9.97;;
11283;SDS011;5698;47.332;11.180;2023-07-24T05:34:49;13.13;;;10.67;;
11283;SDS011;5698;47.332;11.180;2023-07-24T05:37:16;12.17;;;10.47;;
11283;SDS011;5698;47.332;11.180;2023-07-24T05:39:43;10.60;;;9.47;;
11283;SDS011;5698;47.332;11.180;2023-07-24T05:42:10;10.73;;;9.47;;
11283;SDS011;5698;47.332;11.180;2023-07-24T05:44:38;12.77;;;10.27;;
11283;SDS011;5698;47.332;11.180;2023-07-24T05:47:05;13.83;;;10.83;;
11283;SDS011;5698;47.332;11.180;2023-07-24T05:49:32;12.47;;;10.63;;
11283;SDS011;5698;47.332;11.180;2023-07-24T05:51:59;13.50;;;10.83;;
11283;SDS011;5698;47.332;11.180;2023-07-24T05:54:27;10.53;;;9.43;;
11283;SDS011;5698;47.332;11.180;2023-07-24T05:56:54;11.07;;;9.80;;
11283;SDS011;5698;47.332;11.180;2023-07-24T05:59:21;12.10;;;9.77;;
11283;SDS011;5698;47.332;11.180;2023-07-24T06:01:50;13.70;;;10.80;;
11283;SDS011;5698;47.332;11.180;2023-07-24T06:04:17;11.13;;;9.93;;
11283;SDS011;5698;47.332;11.180;2023-07-24T06:06:43;12.20;;;9.60;;
11283;SDS011;5698;47.332;11.180;2023-07-24T06:09:10;13.63;;;10.80;;
11283;SDS011;5698;47.332;11.180;2023-07-24T06:11:36;11.30;;;9.80;;
11283;SDS011;5698;47.332;11.180;2023-07-24T06:14:03;11.97;;;9.87;;
11283;SDS011;5698;47.332;11.180;2023-07-24T06:16:30;11.50;;;9.63;;
11283;SDS011;5698;47.332;11.180;2023-07-24T06:18:59;14.83;;;10.60;;
11283;SDS011;5698;47.332;11.180;2023-07-24T06:21:25;11.40;;;9.80;;
11283;SDS011;5698;47.332;11.180;2023-07-24T06:23:52;11.67;;;10.47;;
11283;SDS011;5698;47.332;11.180;2023-07-24T06:26:19;11.60;;;10.40;;
11283;SDS011;5698;47.332;11.180;2023-07-24T06:28:46;12.23;;;10.13;;
11283;SDS011;5698;47.332;11.180;2023-07-24T06:31:13;10.97;;;9.80;;
11283;SDS011;5698;47.332;11.180;2023-07-24T06:33:40;13.17;;;11.07;;
11283;SDS011;5698;47.332;11.180;2023-07-24T06:36:10;12.90;;;10.53;;
11283;SDS011;5698;47.332;11.180;2023-07-24T06:38:37;13.20;;;10.60;;
11283;SDS011;5698;47.332;11.180;2023-07-24T06:41:04;11.87;;;10.60;;
11283;SDS011;5698;47.332;11.180;2023-07-24T06:43:32;13.27;;;10.70;;
11283;SDS011;5698;47.332;11.180;2023-07-24T06:45:59;12.30;;;10.40;;
11283;SDS011;5698;47.332;11.180;2023-07-24T06:48:26;12.17;;;10.83;;
11283;SDS011;5698;47.332;11.180;2023-07-24T06:50:53;14.47;;;10.90;;
11283;SDS011;5698;47.332;11.180;2023-07-24T06:53:21;13.63;;;10.40;;
11283;SDS011;5698;47.332;11.180;2023-07-24T06:55:48;11.67;;;9.70;;
11283;SDS011;5698;47.332;11.180;2023-07-24T06:58:15;12.23;;;10.67;;
11283;SDS011;5698;47.332;11.180;2023-07-24T07:00:42;12.40;;;9.80;;
11283;SDS011;5698;47.332;11.180;2023-07-24T07:03:09;13.57;;;10.93;;
11283;SDS011;5698;47.332;11.180;2023-07-24T07:05:37;13.90;;;10.80;;
11283;SDS011;5698;47.332;11.180;2023-07-24T07:08:04;14.10;;;11.03;;
11283;SDS011;5698;47.332;11.180;2023-07-24T07:10:32;13.33;;;11.10;;
11283;SDS011;5698;47.332;11.180;2023-07-24T07:12:59;14.40;;;11.73;;
11283;SDS011;5698;47.332;11.180;2023-07-24T07:15:28;11.90;;;10.47;;
11283;SDS011;5698;47.332;11.180;2023-07-24T07:17:55;16.30;;;11.57;;
11283;SDS011;5698;47.332;11.180;2023-07-24T07:20:22;15.17;;;11.50;;
11283;SDS011;5698;47.332;11.180;2023-07-24T07:22:49;15.03;;;11.87;;
11283;SDS011;5698;47.332;11.180;2023-07-24T07:25:16;13.23;;;11.60;;
11283;SDS011;5698;47.332;11.180;2023-07-24T07:27:44;13.70;;;11.67;;
11283;SDS011;5698;47.332;11.180;2023-07-24T07:30:11;17.37;;;12.43;;
11283;SDS011;5698;47.332;11.180;2023-07-24T07:32:38;13.90;;;11.83;;
11283;SDS011;5698;47.332;11.180;2023-07-24T07:35:06;13.97;;;11.93;;
11283;SDS011;5698;47.332;11.180;2023-07-24T07:37:33;14.10;;;11.70;;
11283;SDS011;5698;47.332;11.180;2023-07-24T07:40:00;13.90;;;11.33;;
11283;SDS011;5698;47.332;11.180;2023-07-24T07:42:28;15.23;;;11.80;;
11283;SDS011;5698;47.332;11.180;2023-07-24T07:44:56;18.93;;;12.30;;
11283;SDS011;5698;47.332;11.180;2023-07-24T07:47:23;15.53;;;11.80;;
11283;SDS011;5698;47.332;11.180;2023-07-24T07:49:50;14.77;;;11.80;;
11283;SDS011;5698;47.332;11.180;2023-07-24T07:52:17;16.83;;;13.03;;
11283;SDS011;5698;47.332;11.180;2023-07-24T07:54:46;14.40;;;11.33;;
11283;SDS011;5698;47.332;11.180;2023-07-24T07:57:13;15.20;;;13.00;;
11283;SDS011;5698;47.332;11.180;2023-07-24T07:59:40;14.77;;;12.73;;
11283;SDS011;5698;47.332;11.180;2023-07-24T08:02:08;14.10;;;12.53;;
11283;SDS011;5698;47.332;11.180;2023-07-24T08:04:38;14.47;;;12.67;;
11283;SDS011;5698;47.332;11.180;2023-07-24T08:07:05;13.47;;;11.87;;
11283;SDS011;5698;47.332;11.180;2023-07-24T08:09:32;13.77;;;12.23;;
11283;SDS011;5698;47.332;11.180;2023-07-24T08:12:01;13.00;;;11.57;;
11283;SDS011;5698;47.332;11.180;2023-07-24T08:14:28;15.40;;;12.57;;
11283;SDS011;5698;47.332;11.180;2023-07-24T08:16:55;15.20;;;12.43;;
11283;SDS011;5698;47.332;11.180;2023-07-24T08:19:23;16.27;;;12.53;;
11283;SDS011;5698;47.332;11.180;2023-07-24T08:21:53;13.93;;;12.07;;
11283;SDS011;5698;47.332;11.180;2023-07-24T08:24:20;14.17;;;12.33;;
11283;SDS011;5698;47.332;11.180;2023-07-24T08:26:47;14.50;;;12.57;;
11283;SDS011;5698;47.332;11.180;2023-07-24T08:29:14;14.20;;;12.00;;
11283;SDS011;5698;47.332;11.180;2023-07-24T08:31:41;13.70;;;11.73;;
11283;SDS011;5698;47.332;11.180;2023-07-24T08:34:08;13.03;;;11.40;;
11283;SDS011;5698;47.332;11.180;2023-07-24T08:36:37;14.47;;;11.93;;
11283;SDS011;5698;47.332;11.180;2023-07-24T08:39:04;14.43;;;10.97;;
11283;SDS011;5698;47.332;11.180;2023-07-24T08:41:31;15.67;;;12.00;;
11283;SDS011;5698;47.332;11.180;2023-07-24T08:43:59;14.10;;;11.40;;
11283;SDS011;5698;47.332;11.180;2023-07-24T08:46:27;14.63;;;11.47;;
11283;SDS011;5698;47.332;11.180;2023-07-24T08:48:54;13.93;;;11.30;;
11283;SDS011;5698;47.332;11.180;2023-07-24T08:51:21;12.77;;;11.00;;
11283;SDS011;5698;47.332;11.180;2023-07-24T08:53:51;13.80;;;12.13;;
11283;SDS011;5698;47.332;11.180;2023-07-24T08:56:19;13.97;;;11.43;;
11283;SDS011;5698;47.332;11.180;2023-07-24T08:58:46;13.50;;;11.70;;
11283;SDS011;5698;47.332;11.180;2023-07-24T09:01:13;14.17;;;11.80;;
11283;SDS011;5698;47.332;11.180;2023-07-24T09:03:40;15.10;;;11.23;;
11283;SDS011;5698;47.332;11.180;2023-07-24T09:06:07;11.80;;;10.37;;
11283;SDS011;5698;47.332;11.180;2023-07-24T09:08:34;12.47;;;10.53;;
11283;SDS011;5698;47.332;11.180;2023-07-24T09:11:04;13.93;;;11.20;;
11283;SDS011;5698;47.332;11.180;2023-07-24T09:13:32;13.53;;;10.30;;
11283;SDS011;5698;47.332;11.180;2023-07-24T09:16:01;14.50;;;11.23;;
11283;SDS011;5698;47.332;11.180;2023-07-24T09:18:37;13.53;;;11.03;;
11283;SDS011;5698;47.332;11.180;2023-07-24T09:21:05;14.77;;;12.00;;
11283;SDS011;5698;47.332;11.180;2023-07-24T09:23:32;13.57;;;10.93;;
11283;SDS011;5698;47.332;11.180;2023-07-24T09:26:04;13.07;;;10.40;;
11283;SDS011;5698;47.332;11.180;2023-07-24T09:28:33;13.13;;;11.23;;
11283;SDS011;5698;47.332;11.180;2023-07-24T09:31:01;11.87;;;10.47;;
11283;SDS011;5698;47.332;11.180;2023-07-24T09:33:34;10.70;;;9.50;;
11283;SDS011;5698;47.332;11.180;2023-07-24T09:36:03;10.23;;;9.07;;
11283;SDS011;5698;47.332;11.180;2023-07-24T09:38:30;10.33;;;8.43;;
11283;SDS011;5698;47.332;11.180;2023-07-24T09:40:57;10.60;;;8.90;;
11283;SDS011;5698;47.332;11.180;2023-07-24T09:43:26;11.67;;;8.60;;
11283;SDS011;5698;47.332;11.180;2023-07-24T09:45:55;9.57;;;8.13;;
11283;SDS011;5698;47.332;11.180;2023-07-24T09:48:23;8.97;;;8.03;;
11283;SDS011;5698;47.332;11.180;2023-07-24T09:50:52;8.67;;;7.50;;
11283;SDS011;5698;47.332;11.180;2023-07-24T09:53:20;8.27;;;7.33;;
11283;SDS011;5698;47.332;11.180;2023-07-24T09:55:52;9.47;;;7.70;;
11283;SDS011;5698;47.332;11.180;2023-07-24T09:58:23;9.93;;;7.87;;
11283;SDS011;5698;47.332;11.180;2023-07-24T10:00:52;9.83;;;8.23;;
11283;SDS011;5698;47.332;11.180;2023-07-24T10:03:19;8.87;;;7.47;;
11283;SDS011;5698;47.332;11.180;2023-07-24T10:05:48;8.47;;;7.33;;
11283;SDS011;5698;47.332;11.180;2023-07-24T10:08:17;8.40;;;7.53;;
11283;SDS011;5698;47.332;11.180;2023-07-24T10:10:44;9.53;;;8.33;;
11283;SDS011;5698;47.332;11.180;2023-07-24T10:13:12;10.57;;;8.37;;
11283;SDS011;5698;47.332;11.180;2023-07-24T10:15:42;9.63;;;7.50;;
11283;SDS011;5698;47.332;11.180;2023-07-24T10:18:10;9.43;;;7.87;;
11283;SDS011;5698;47.332;11.180;2023-07-24T10:20:38;8.83;;;7.93;;
11283;SDS011;5698;47.332;11.180;2023-07-24T10:23:07;9.23;;;7.77;;
11283;SDS011;5698;47.332;11.180;2023-07-24T10:25:37;8.73;;;7.67;;
11283;SDS011;5698;47.332;11.180;2023-07-24T10:28:06;8.13;;;7.33;;
11283;SDS011;5698;47.332;11.180;2023-07-24T10:30:36;8.27;;;7.33;;
11283;SDS011;5698;47.332;11.180;2023-07-24T10:33:08;9.40;;;7.30;;
11283;SDS011;5698;47.332;11.180;2023-07-24T10:35:37;7.40;;;6.70;;
11283;SDS011;5698;47.332;11.180;2023-07-24T10:38:05;7.77;;;6.97;;
11283;SDS011;5698;47.332;11.180;2023-07-24T10:40:32;8.03;;;7.00;;
11283;SDS011;5698;47.332;11.180;2023-07-24T10:43:00;10.03;;;6.77;;
11283;SDS011;5698;47.332;11.180;2023-07-24T10:45:37;8.33;;;6.97;;
11283;SDS011;5698;47.332;11.180;2023-07-24T10:48:09;7.83;;;6.43;;
11283;SDS011;5698;47.332;11.180;2023-07-24T10:50:38;5.53;;;5.03;;
11283;SDS011;5698;47.332;11.180;2023-07-24T10:53:06;6.60;;;5.90;;
11283;SDS011;5698;47.332;11.180;2023-07-24T10:55:33;7.87;;;6.40;;
11283;SDS011;5698;47.332;11.180;2023-07-24T10:57:59;7.63;;;5.83;;
11283;SDS011;5698;47.332;11.180;2023-07-24T11:00:26;7.77;;;6.07;;
11283;SDS011;5698;47.332;11.180;2023-07-24T11:02:54;6.23;;;5.63;;
11283;SDS011;5698;47.332;11.180;2023-07-24T11:05:22;6.73;;;5.50;;
11283;SDS011;5698;47.332;11.180;2023-07-24T11:07:50;6.80;;;6.10;;
11283;SDS011;5698;47.332;11.180;2023-07-24T11:10:17;6.30;;;5.70;;
11283;SDS011;5698;47.332;11.180;2023-07-24T11:12:45;7.00;;;6.23;;
11283;SDS011;5698;47.332;11.180;2023-07-24T11:15:12;6.20;;;5.60;;
11283;SDS011;5698;47.332;11.180;2023-07-24T11:17:40;7.13;;;6.43;;
11283;SDS011;5698;47.332;11.180;2023-07-24T11:20:09;6.97;;;6.27;;
11283;SDS011;5698;47.332;11.180;2023-07-24T11:22:42;7.80;;;5.97;;
11283;SDS011;5698;47.332;11.180;2023-07-24T11:25:10;8.07;;;6.23;;
11283;SDS011;5698;47.332;11.180;2023-07-24T11:27:38;7.90;;;6.00;;
11283;SDS011;5698;47.332;11.180;2023-07-24T11:30:07;9.07;;;6.73;;
11283;SDS011;5698;47.332;11.180;2023-07-24T11:32:35;7.63;;;6.87;;
11283;SDS011;5698;47.332;11.180;2023-07-24T11:35:04;7.63;;;6.83;;
11283;SDS011;5698;47.332;11.180;2023-07-24T11:37:31;7.33;;;6.50;;
11283;SDS011;5698;47.332;11.180;2023-07-24T11:40:01;8.67;;;6.77;;
11283;SDS011;5698;47.332;11.180;2023-07-24T11:42:29;7.93;;;7.07;;
11283;SDS011;5698;47.332;11.180;2023-07-24T11:44:59;8.70;;;6.70;;
11283;SDS011;5698;47.332;11.180;2023-07-24T11:47:28;7.33;;;6.60;;
11283;SDS011;5698;47.332;11.180;2023-07-24T11:49:56;8.03;;;6.40;;
11283;SDS011;5698;47.332;11.180;2023-07-24T11:52:24;7.83;;;6.67;;
11283;SDS011;5698;47.332;11.180;2023-07-24T11:54:57;8.80;;;7.10;;
11283;SDS011;5698;47.332;11.180;2023-07-24T11:57:28;7.63;;;6.80;;
11283;SDS011;5698;47.332;11.180;2023-07-24T11:59:55;7.10;;;6.40;;
11283;SDS011;5698;47.332;11.180;2023-07-24T12:02:23;6.63;;;5.80;;
11283;SDS011;5698;47.332;11.180;2023-07-24T12:04:56;8.00;;;6.37;;
11283;SDS011;5698;47.332;11.180;2023-07-24T12:07:28;7.20;;;6.50;;
11283;SDS011;5698;47.332;11.180;2023-07-24T12:09:57;7.00;;;6.20;;
11283;SDS011;5698;47.332;11.180;2023-07-24T12:12:24;6.30;;;5.70;;
11283;SDS011;5698;47.332;11.180;2023-07-24T12:14:53;7.37;;;6.63;;
11283;SDS011;5698;47.332;11.180;2023-07-24T12:17:20;7.70;;;6.73;;
11283;SDS011;5698;47.332;11.180;2023-07-24T12:19:46;7.50;;;6.70;;
11283;SDS011;5698;47.332;11.180;2023-07-24T12:22:14;8.07;;;6.90;;
11283;SDS011;5698;47.332;11.180;2023-07-24T12:24:41;7.83;;;7.03;;
11283;SDS011;5698;47.332;11.180;2023-07-24T12:27:08;8.20;;;7.40;;
11283;SDS011;5698;47.332;11.180;2023-07-24T12:29:35;6.97;;;6.30;;
11283;SDS011;5698;47.332;11.180;2023-07-24T12:32:03;8.47;;;6.27;;
11283;SDS011;5698;47.332;11.180;2023-07-24T12:34:31;7.60;;;6.80;;
11283;SDS011;5698;47.332;11.180;2023-07-24T12:36:58;9.27;;;7.40;;
11283;SDS011;5698;47.332;11.180;2023-07-24T12:39:25;7.53;;;6.73;;
11283;SDS011;5698;47.332;11.180;2023-07-24T12:41:52;9.07;;;6.87;;
11283;SDS011;5698;47.332;11.180;2023-07-24T12:44:18;7.83;;;6.70;;
11283;SDS011;5698;47.332;11.180;2023-07-24T12:46:45;7.07;;;6.20;;
11283;SDS011;5698;47.332;11.180;2023-07-24T12:49:14;7.70;;;5.97;;
11283;SDS011;5698;47.332;11.180;2023-07-24T12:51:41;6.03;;;5.43;;
11283;SDS011;5698;47.332;11.180;2023-07-24T12:54:08;6.73;;;6.00;;
11283;SDS011;5698;47.332;11.180;2023-07-24T12:56:35;6.60;;;5.67;;
11283;SDS011;5698;47.332;11.180;2023-07-24T12:59:02;7.00;;;5.83;;
11283;SDS011;5698;47.332;11.180;2023-07-24T13:01:29;6.00;;;5.27;;
11283;SDS011;5698;47.332;11.180;2023-07-24T13:03:56;6.00;;;5.40;;
11283;SDS011;5698;47.332;11.180;2023-07-24T13:06:24;6.17;;;5.57;;
11283;SDS011;5698;47.332;11.180;2023-07-24T13:08:51;6.60;;;5.67;;
11283;SDS011;5698;47.332;11.180;2023-07-24T13:11:18;7.13;;;5.20;;
11283;SDS011;5698;47.332;11.180;2023-07-24T13:13:46;6.97;;;5.37;;
11283;SDS011;5698;47.332;11.180;2023-07-24T13:16:15;7.20;;;5.87;;
11283;SDS011;5698;47.332;11.180;2023-07-24T13:18:42;6.27;;;5.47;;
11283;SDS011;5698;47.332;11.180;2023-07-24T13:21:09;6.80;;;6.10;;
11283;SDS011;5698;47.332;11.180;2023-07-24T13:23:38;6.20;;;5.50;;
11283;SDS011;5698;47.332;11.180;2023-07-24T13:26:05;5.90;;;5.37;;
11283;SDS011;5698;47.332;11.180;2023-07-24T13:28:33;7.03;;;5.40;;
11283;SDS011;5698;47.332;11.180;2023-07-24T13:31:10;6.53;;;5.90;;
11283;SDS011;5698;47.332;11.180;2023-07-24T13:33:38;6.33;;;5.73;;
11283;SDS011;5698;47.332;11.180;2023-07-24T13:36:04;6.13;;;5.53;;
11283;SDS011;5698;47.332;11.180;2023-07-24T13:38:31;6.53;;;5.60;;
11283;SDS011;5698;47.332;11.180;2023-07-24T13:41:00;6.73;;;5.00;;
11283;SDS011;5698;47.332;11.180;2023-07-24T13:43:27;6.30;;;5.70;;
11283;SDS011;5698;47.332;11.180;2023-07-24T13:45:55;6.57;;;5.60;;
11283;SDS011;5698;47.332;11.180;2023-07-24T13:48:22;5.87;;;5.27;;
11283;SDS011;5698;47.332;11.180;2023-07-24T13:50:49;8.07;;;6.33;;
11283;SDS011;5698;47.332;11.180;2023-07-24T13:53:16;6.83;;;5.50;;
11283;SDS011;5698;47.332;11.180;2023-07-24T13:55:43;8.73;;;6.53;;
11283;SDS011;5698;47.332;11.180;2023-07-24T13:58:12;7.57;;;6.40;;
11283;SDS011;5698;47.332;11.180;2023-07-24T14:00:39;7.20;;;6.47;;
11283;SDS011;5698;47.332;11.180;2023-07-24T14:03:05;6.47;;;5.50;;
11283;SDS011;5698;47.332;11.180;2023-07-24T14:05:33;6.80;;;5.87;;
11283;SDS011;5698;47.332;11.180;2023-07-24T14:08:01;7.77;;;6.17;;
11283;SDS011;5698;47.332;11.180;2023-07-24T14:10:28;7.13;;;6.37;;
11283;SDS011;5698;47.332;11.180;2023-07-24T14:12:56;7.83;;;6.57;;
11283;SDS011;5698;47.332;11.180;2023-07-24T14:15:24;7.23;;;6.30;;
11283;SDS011;5698;47.332;11.180;2023-07-24T14:17:51;7.07;;;6.37;;
11283;SDS011;5698;47.332;11.180;2023-07-24T14:20:18;7.13;;;5.90;;
11283;SDS011;5698;47.332;11.180;2023-07-24T14:22:45;7.97;;;6.47;;
11283;SDS011;5698;47.332;11.180;2023-07-24T14:25:12;8.07;;;6.43;;
11283;SDS011;5698;47.332;11.180;2023-07-24T14:27:39;6.27;;;5.60;;
11283;SDS011;5698;47.332;11.180;2023-07-24T14:30:08;5.20;;;4.57;;
11283;SDS011;5698;47.332;11.180;2023-07-24T14:32:37;6.00;;;4.83;;
11283;SDS011;5698;47.332;11.180;2023-07-24T14:35:04;5.87;;;5.27;;
11283;SDS011;5698;47.332;11.180;2023-07-24T14:37:32;6.37;;;5.47;;
11283;SDS011;5698;47.332;11.180;2023-07-24T14:39:59;6.30;;;5.13;;